Willisville, Indiana
Current Conditions -  °F | °C
As of 7:55 PM on Wednesday 26 Nov 2014 (Local Time) from KDCY Reporting Station
Overcast Overcast  
Wind Chill: 35°   Ceiling: 5000
Heat Index: 35°   Visibility: 10mi
Dew Point: 30°   Wind: 3mph
Humidity: 82%   Direction: 280°W
Pressure: 30.06"   Gusts: NA
Location:  38.4723°N, 87.3105°W
Report Text: KDCY 270155Z AUTO 28003KT 10SM OVC050 02/M01 A3006 RMK AO2 T00161012
Loading
Personal Weather Stations






























Interactive Weather Map New forecast layout! Learn more

10-Day Weather Forecast

Advertisements
Track Severe Weather on mobile